Anvik Airport Anvik US
ICAO: PANV
IATA:
Category: Medium
Scheduled Services:

Elevation: 291 ft
TransAlt. 18000 ft.

Airport Communications:
AWOS 3:133.55
ANCHORAGE CNTR:135.7
KENAI RDO:122.4
CTAF/UNICOM:122.7

PANV Zoom In..

If Map Doesn't Load, Click Here

Runways:

(A) RW 17 length 4000 ft width 75 ft
---- / hdg 172

(B) RW 35 length 4000 ft width 75 ft
---- / hdg 352

Location; PANV
Day. 23 / Time. 05.56 Zulu
* Altimeter: 29.40
* Temperature: 08° c. 46.4°f.
* Wind from: 140° Speed 08 kn.
Dewpoint: 08° c.
Visibility: 10 Statute Miles.
Clouds: Overcast 600 ft.
Conditions: Light Rain.

PANV 230556Z AUTO 14008KT 10SM -RA OVC006 08/08 A2940 RMK AO2 RAB11 SLP977 P0000 60007 T00830078 10089 20083 55000


Wind From 140°
Speed 08 kn.

 
 
jpsmedia.com for Web Design worldairports.se 2018   terms of use